sensor_id;sensor_type;location;lat;lon;timestamp;P1;durP1;ratioP1;P2;durP2;ratioP2
42700;SDS011;28316;49.504;8.526;2023-04-25T00:01:31;2.83;;;1.33;;
42700;SDS011;28316;49.504;8.526;2023-04-25T00:04:01;3.15;;;1.40;;
42700;SDS011;28316;49.504;8.526;2023-04-25T00:06:27;3.63;;;1.98;;
42700;SDS011;28316;49.504;8.526;2023-04-25T00:08:54;2.95;;;1.55;;
42700;SDS011;28316;49.504;8.526;2023-04-25T00:11:21;2.63;;;1.50;;
42700;SDS011;28316;49.504;8.526;2023-04-25T00:13:48;1.55;;;1.42;;
42700;SDS011;28316;49.504;8.526;2023-04-25T00:16:15;3.28;;;1.90;;
42700;SDS011;28316;49.504;8.526;2023-04-25T00:18:42;3.47;;;1.70;;
42700;SDS011;28316;49.504;8.526;2023-04-25T00:21:08;3.47;;;1.50;;
42700;SDS011;28316;49.504;8.526;2023-04-25T00:23:34;7.22;;;1.80;;
42700;SDS011;28316;49.504;8.526;2023-04-25T00:26:01;3.83;;;1.55;;
42700;SDS011;28316;49.504;8.526;2023-04-25T00:28:27;5.03;;;1.95;;
42700;SDS011;28316;49.504;8.526;2023-04-25T00:30:53;3.33;;;1.65;;
42700;SDS011;28316;49.504;8.526;2023-04-25T00:33:19;3.30;;;1.55;;
42700;SDS011;28316;49.504;8.526;2023-04-25T00:35:45;3.58;;;1.48;;
42700;SDS011;28316;49.504;8.526;2023-04-25T00:38:10;2.90;;;1.30;;
42700;SDS011;28316;49.504;8.526;2023-04-25T00:40:36;3.67;;;2.22;;
42700;SDS011;28316;49.504;8.526;2023-04-25T00:43:02;3.05;;;1.92;;
42700;SDS011;28316;49.504;8.526;2023-04-25T00:45:28;3.85;;;1.85;;
42700;SDS011;28316;49.504;8.526;2023-04-25T00:47:55;2.53;;;1.63;;
42700;SDS011;28316;49.504;8.526;2023-04-25T00:50:21;2.53;;;1.77;;
42700;SDS011;28316;49.504;8.526;2023-04-25T00:52:48;2.97;;;2.08;;
42700;SDS011;28316;49.504;8.526;2023-04-25T00:55:14;2.60;;;1.38;;
42700;SDS011;28316;49.504;8.526;2023-04-25T00:57:40;4.22;;;1.83;;
42700;SDS011;28316;49.504;8.526;2023-04-25T01:00:08;4.28;;;1.90;;
42700;SDS011;28316;49.504;8.526;2023-04-25T01:02:36;7.25;;;2.40;;
42700;SDS011;28316;49.504;8.526;2023-04-25T01:05:02;2.88;;;1.35;;
42700;SDS011;28316;49.504;8.526;2023-04-25T01:07:29;2.33;;;1.25;;
42700;SDS011;28316;49.504;8.526;2023-04-25T01:09:55;4.20;;;1.73;;
42700;SDS011;28316;49.504;8.526;2023-04-25T01:12:22;5.40;;;1.67;;
42700;SDS011;28316;49.504;8.526;2023-04-25T01:14:48;3.53;;;1.60;;
42700;SDS011;28316;49.504;8.526;2023-04-25T01:17:14;3.78;;;1.75;;
42700;SDS011;28316;49.504;8.526;2023-04-25T01:19:41;2.55;;;1.35;;
42700;SDS011;28316;49.504;8.526;2023-04-25T01:22:07;2.00;;;1.40;;
42700;SDS011;28316;49.504;8.526;2023-04-25T01:24:35;3.28;;;1.63;;
42700;SDS011;28316;49.504;8.526;2023-04-25T01:27:01;3.20;;;1.85;;
42700;SDS011;28316;49.504;8.526;2023-04-25T01:29:28;3.72;;;1.83;;
42700;SDS011;28316;49.504;8.526;2023-04-25T01:31:55;4.22;;;1.85;;
42700;SDS011;28316;49.504;8.526;2023-04-25T01:34:23;3.53;;;1.42;;
42700;SDS011;28316;49.504;8.526;2023-04-25T01:36:49;3.00;;;1.85;;
42700;SDS011;28316;49.504;8.526;2023-04-25T01:39:16;6.85;;;1.75;;
42700;SDS011;28316;49.504;8.526;2023-04-25T01:41:43;3.40;;;2.10;;
42700;SDS011;28316;49.504;8.526;2023-04-25T01:44:11;2.95;;;1.45;;
42700;SDS011;28316;49.504;8.526;2023-04-25T01:46:37;3.30;;;1.90;;
42700;SDS011;28316;49.504;8.526;2023-04-25T01:49:02;3.58;;;1.65;;
42700;SDS011;28316;49.504;8.526;2023-04-25T01:51:28;3.90;;;2.10;;
42700;SDS011;28316;49.504;8.526;2023-04-25T01:53:55;4.13;;;2.00;;
42700;SDS011;28316;49.504;8.526;2023-04-25T01:56:22;6.93;;;1.92;;
42700;SDS011;28316;49.504;8.526;2023-04-25T01:58:48;3.63;;;2.03;;
42700;SDS011;28316;49.504;8.526;2023-04-25T02:01:14;3.25;;;1.92;;
42700;SDS011;28316;49.504;8.526;2023-04-25T02:03:40;3.75;;;2.17;;
42700;SDS011;28316;49.504;8.526;2023-04-25T02:06:06;7.95;;;2.63;;
42700;SDS011;28316;49.504;8.526;2023-04-25T02:08:31;8.90;;;2.72;;
42700;SDS011;28316;49.504;8.526;2023-04-25T02:10:57;6.65;;;2.97;;
42700;SDS011;28316;49.504;8.526;2023-04-25T02:13:23;6.88;;;2.50;;
42700;SDS011;28316;49.504;8.526;2023-04-25T02:15:49;5.18;;;3.05;;
42700;SDS011;28316;49.504;8.526;2023-04-25T02:18:15;7.28;;;3.75;;
42700;SDS011;28316;49.504;8.526;2023-04-25T02:20:43;6.30;;;3.53;;
42700;SDS011;28316;49.504;8.526;2023-04-25T02:23:10;6.68;;;3.50;;
42700;SDS011;28316;49.504;8.526;2023-04-25T02:25:36;6.40;;;3.08;;
42700;SDS011;28316;49.504;8.526;2023-04-25T02:28:01;6.63;;;3.47;;
42700;SDS011;28316;49.504;8.526;2023-04-25T02:30:27;7.38;;;3.17;;
42700;SDS011;28316;49.504;8.526;2023-04-25T02:32:53;4.85;;;3.05;;
42700;SDS011;28316;49.504;8.526;2023-04-25T02:35:19;4.30;;;2.72;;
42700;SDS011;28316;49.504;8.526;2023-04-25T02:37:44;5.50;;;2.50;;
42700;SDS011;28316;49.504;8.526;2023-04-25T02:40:10;7.10;;;3.40;;
42700;SDS011;28316;49.504;8.526;2023-04-25T02:42:36;4.72;;;2.80;;
42700;SDS011;28316;49.504;8.526;2023-04-25T02:45:02;7.90;;;3.58;;
42700;SDS011;28316;49.504;8.526;2023-04-25T02:47:28;6.68;;;3.78;;
42700;SDS011;28316;49.504;8.526;2023-04-25T02:49:54;5.75;;;3.40;;
42700;SDS011;28316;49.504;8.526;2023-04-25T02:52:20;6.32;;;3.30;;
42700;SDS011;28316;49.504;8.526;2023-04-25T02:54:46;4.93;;;2.83;;
42700;SDS011;28316;49.504;8.526;2023-04-25T02:57:12;6.20;;;3.03;;
42700;SDS011;28316;49.504;8.526;2023-04-25T02:59:37;4.40;;;2.80;;
42700;SDS011;28316;49.504;8.526;2023-04-25T03:02:03;8.32;;;3.70;;
42700;SDS011;28316;49.504;8.526;2023-04-25T03:04:29;6.18;;;3.08;;
42700;SDS011;28316;49.504;8.526;2023-04-25T03:06:55;7.07;;;3.47;;
42700;SDS011;28316;49.504;8.526;2023-04-25T03:09:20;11.35;;;3.08;;
42700;SDS011;28316;49.504;8.526;2023-04-25T03:11:46;6.75;;;2.78;;
42700;SDS011;28316;49.504;8.526;2023-04-25T03:14:12;8.55;;;3.58;;
42700;SDS011;28316;49.504;8.526;2023-04-25T03:16:38;9.05;;;3.22;;
42700;SDS011;28316;49.504;8.526;2023-04-25T03:19:05;11.18;;;3.15;;
42700;SDS011;28316;49.504;8.526;2023-04-25T03:21:31;7.10;;;3.80;;
42700;SDS011;28316;49.504;8.526;2023-04-25T03:23:59;8.15;;;3.13;;
42700;SDS011;28316;49.504;8.526;2023-04-25T03:26:28;5.85;;;3.20;;
42700;SDS011;28316;49.504;8.526;2023-04-25T03:28:54;9.32;;;3.25;;
42700;SDS011;28316;49.504;8.526;2023-04-25T03:31:20;6.00;;;2.90;;
42700;SDS011;28316;49.504;8.526;2023-04-25T03:33:46;7.15;;;3.85;;
42700;SDS011;28316;49.504;8.526;2023-04-25T03:36:12;6.78;;;3.75;;
42700;SDS011;28316;49.504;8.526;2023-04-25T03:38:38;7.28;;;3.42;;
42700;SDS011;28316;49.504;8.526;2023-04-25T03:41:04;6.50;;;3.83;;
42700;SDS011;28316;49.504;8.526;2023-04-25T03:43:29;8.30;;;4.78;;
42700;SDS011;28316;49.504;8.526;2023-04-25T03:45:55;11.65;;;3.80;;
42700;SDS011;28316;49.504;8.526;2023-04-25T03:48:21;6.30;;;3.45;;
42700;SDS011;28316;49.504;8.526;2023-04-25T03:50:49;8.88;;;3.58;;
42700;SDS011;28316;49.504;8.526;2023-04-25T03:53:15;5.10;;;3.15;;
42700;SDS011;28316;49.504;8.526;2023-04-25T03:55:41;5.93;;;3.28;;
42700;SDS011;28316;49.504;8.526;2023-04-25T03:58:07;7.45;;;3.60;;
42700;SDS011;28316;49.504;8.526;2023-04-25T04:00:33;5.60;;;3.03;;
42700;SDS011;28316;49.504;8.526;2023-04-25T04:03:00;7.20;;;3.65;;
42700;SDS011;28316;49.504;8.526;2023-04-25T04:05:26;7.53;;;4.38;;
42700;SDS011;28316;49.504;8.526;2023-04-25T04:07:52;6.72;;;4.07;;
42700;SDS011;28316;49.504;8.526;2023-04-25T04:10:18;6.65;;;3.80;;
42700;SDS011;28316;49.504;8.526;2023-04-25T04:12:44;5.85;;;2.60;;
42700;SDS011;28316;49.504;8.526;2023-04-25T04:15:10;9.07;;;4.10;;
42700;SDS011;28316;49.504;8.526;2023-04-25T04:17:36;6.07;;;3.55;;
42700;SDS011;28316;49.504;8.526;2023-04-25T04:20:03;8.10;;;3.72;;
42700;SDS011;28316;49.504;8.526;2023-04-25T04:22:30;10.45;;;4.30;;
42700;SDS011;28316;49.504;8.526;2023-04-25T04:24:56;6.82;;;3.80;;
42700;SDS011;28316;49.504;8.526;2023-04-25T04:27:22;6.85;;;3.10;;
42700;SDS011;28316;49.504;8.526;2023-04-25T04:29:48;9.80;;;4.03;;
42700;SDS011;28316;49.504;8.526;2023-04-25T04:32:16;7.28;;;4.00;;
42700;SDS011;28316;49.504;8.526;2023-04-25T04:34:42;8.40;;;3.90;;
42700;SDS011;28316;49.504;8.526;2023-04-25T04:37:08;7.20;;;3.60;;
42700;SDS011;28316;49.504;8.526;2023-04-25T04:39:35;7.13;;;3.33;;
42700;SDS011;28316;49.504;8.526;2023-04-25T04:42:01;7.45;;;3.22;;
42700;SDS011;28316;49.504;8.526;2023-04-25T04:44:28;6.50;;;3.55;;
42700;SDS011;28316;49.504;8.526;2023-04-25T04:46:58;10.00;;;4.72;;
42700;SDS011;28316;49.504;8.526;2023-04-25T04:49:24;10.05;;;4.50;;
42700;SDS011;28316;49.504;8.526;2023-04-25T04:51:50;6.07;;;3.47;;
42700;SDS011;28316;49.504;8.526;2023-04-25T04:54:16;7.03;;;4.10;;
42700;SDS011;28316;49.504;8.526;2023-04-25T04:56:41;8.18;;;3.63;;
42700;SDS011;28316;49.504;8.526;2023-04-25T04:59:07;12.13;;;4.28;;
42700;SDS011;28316;49.504;8.526;2023-04-25T05:01:33;7.47;;;3.22;;
42700;SDS011;28316;49.504;8.526;2023-04-25T05:04:02;6.45;;;3.90;;
42700;SDS011;28316;49.504;8.526;2023-04-25T05:06:28;8.23;;;3.83;;
42700;SDS011;28316;49.504;8.526;2023-04-25T05:08:56;8.38;;;4.82;;
42700;SDS011;28316;49.504;8.526;2023-04-25T05:11:23;13.68;;;4.70;;
42700;SDS011;28316;49.504;8.526;2023-04-25T05:13:51;10.70;;;5.00;;
42700;SDS011;28316;49.504;8.526;2023-04-25T05:16:17;9.48;;;4.05;;
42700;SDS011;28316;49.504;8.526;2023-04-25T05:18:43;7.65;;;3.17;;
42700;SDS011;28316;49.504;8.526;2023-04-25T05:21:09;5.78;;;3.13;;
42700;SDS011;28316;49.504;8.526;2023-04-25T05:23:35;7.40;;;3.97;;
42700;SDS011;28316;49.504;8.526;2023-04-25T05:26:00;8.15;;;4.43;;
42700;SDS011;28316;49.504;8.526;2023-04-25T05:28:26;7.78;;;3.95;;
42700;SDS011;28316;49.504;8.526;2023-04-25T05:30:52;8.82;;;3.33;;
42700;SDS011;28316;49.504;8.526;2023-04-25T05:33:18;9.27;;;3.70;;
42700;SDS011;28316;49.504;8.526;2023-04-25T05:35:44;5.93;;;3.47;;
42700;SDS011;28316;49.504;8.526;2023-04-25T05:38:10;8.63;;;3.78;;
42700;SDS011;28316;49.504;8.526;2023-04-25T05:40:36;8.38;;;4.53;;
42700;SDS011;28316;49.504;8.526;2023-04-25T05:43:02;8.00;;;2.83;;
42700;SDS011;28316;49.504;8.526;2023-04-25T05:45:28;8.43;;;4.05;;
42700;SDS011;28316;49.504;8.526;2023-04-25T05:47:53;9.73;;;4.55;;
42700;SDS011;28316;49.504;8.526;2023-04-25T05:50:19;7.63;;;4.13;;
42700;SDS011;28316;49.504;8.526;2023-04-25T05:52:45;11.57;;;4.63;;
42700;SDS011;28316;49.504;8.526;2023-04-25T05:55:11;9.25;;;4.07;;
42700;SDS011;28316;49.504;8.526;2023-04-25T05:57:37;9.18;;;3.85;;
42700;SDS011;28316;49.504;8.526;2023-04-25T06:00:06;5.18;;;2.63;;
42700;SDS011;28316;49.504;8.526;2023-04-25T06:02:34;7.28;;;3.70;;
42700;SDS011;28316;49.504;8.526;2023-04-25T06:05:00;6.90;;;3.13;;
42700;SDS011;28316;49.504;8.526;2023-04-25T06:07:28;9.20;;;3.35;;
42700;SDS011;28316;49.504;8.526;2023-04-25T06:09:55;5.50;;;2.72;;
42700;SDS011;28316;49.504;8.526;2023-04-25T06:12:21;6.65;;;3.50;;
42700;SDS011;28316;49.504;8.526;2023-04-25T06:14:47;5.75;;;3.00;;
42700;SDS011;28316;49.504;8.526;2023-04-25T06:17:13;5.30;;;2.80;;
42700;SDS011;28316;49.504;8.526;2023-04-25T06:19:39;7.10;;;3.38;;
42700;SDS011;28316;49.504;8.526;2023-04-25T06:22:07;6.30;;;3.15;;
42700;SDS011;28316;49.504;8.526;2023-04-25T06:24:33;4.90;;;3.33;;
42700;SDS011;28316;49.504;8.526;2023-04-25T06:26:59;7.07;;;4.15;;
42700;SDS011;28316;49.504;8.526;2023-04-25T06:29:26;6.68;;;3.00;;
42700;SDS011;28316;49.504;8.526;2023-04-25T06:31:51;6.47;;;3.60;;
42700;SDS011;28316;49.504;8.526;2023-04-25T06:34:17;7.18;;;3.35;;
42700;SDS011;28316;49.504;8.526;2023-04-25T06:36:43;11.27;;;3.10;;
42700;SDS011;28316;49.504;8.526;2023-04-25T06:39:09;8.50;;;3.63;;
42700;SDS011;28316;49.504;8.526;2023-04-25T06:41:35;7.10;;;3.42;;
42700;SDS011;28316;49.504;8.526;2023-04-25T06:44:01;7.40;;;3.35;;
42700;SDS011;28316;49.504;8.526;2023-04-25T06:46:27;6.03;;;3.17;;
42700;SDS011;28316;49.504;8.526;2023-04-25T06:48:53;7.20;;;2.72;;
42700;SDS011;28316;49.504;8.526;2023-04-25T06:51:19;6.45;;;3.92;;
42700;SDS011;28316;49.504;8.526;2023-04-25T06:53:45;5.03;;;2.42;;
42700;SDS011;28316;49.504;8.526;2023-04-25T06:56:10;5.57;;;2.70;;
42700;SDS011;28316;49.504;8.526;2023-04-25T06:58:36;11.93;;;3.58;;
42700;SDS011;28316;49.504;8.526;2023-04-25T07:01:02;8.88;;;3.08;;
42700;SDS011;28316;49.504;8.526;2023-04-25T07:03:28;8.60;;;4.00;;
42700;SDS011;28316;49.504;8.526;2023-04-25T07:05:54;7.82;;;3.38;;
42700;SDS011;28316;49.504;8.526;2023-04-25T07:08:20;9.35;;;2.60;;
42700;SDS011;28316;49.504;8.526;2023-04-25T07:10:46;4.63;;;2.75;;
42700;SDS011;28316;49.504;8.526;2023-04-25T07:13:12;4.95;;;2.65;;
42700;SDS011;28316;49.504;8.526;2023-04-25T07:15:37;9.60;;;2.90;;
42700;SDS011;28316;49.504;8.526;2023-04-25T07:18:03;3.50;;;1.95;;
42700;SDS011;28316;49.504;8.526;2023-04-25T07:20:29;15.90;;;2.42;;
42700;SDS011;28316;49.504;8.526;2023-04-25T07:22:56;8.15;;;2.83;;
42700;SDS011;28316;49.504;8.526;2023-04-25T07:25:22;11.70;;;3.25;;
42700;SDS011;28316;49.504;8.526;2023-04-25T07:27:48;8.48;;;3.13;;
42700;SDS011;28316;49.504;8.526;2023-04-25T07:30:14;10.05;;;3.42;;
42700;SDS011;28316;49.504;8.526;2023-04-25T07:32:40;4.68;;;2.70;;
42700;SDS011;28316;49.504;8.526;2023-04-25T07:35:05;5.72;;;2.45;;
42700;SDS011;28316;49.504;8.526;2023-04-25T07:37:35;9.25;;;4.07;;
42700;SDS011;28316;49.504;8.526;2023-04-25T07:40:02;9.23;;;3.28;;
42700;SDS011;28316;49.504;8.526;2023-04-25T07:42:29;7.10;;;2.90;;
42700;SDS011;28316;49.504;8.526;2023-04-25T07:44:55;4.93;;;2.53;;
42700;SDS011;28316;49.504;8.526;2023-04-25T07:47:21;8.38;;;2.80;;
42700;SDS011;28316;49.504;8.526;2023-04-25T07:49:47;6.63;;;2.30;;
42700;SDS011;28316;49.504;8.526;2023-04-25T07:52:12;9.35;;;2.63;;
42700;SDS011;28316;49.504;8.526;2023-04-25T07:54:38;13.32;;;3.10;;
42700;SDS011;28316;49.504;8.526;2023-04-25T07:57:07;7.43;;;2.53;;
42700;SDS011;28316;49.504;8.526;2023-04-25T07:59:32;7.40;;;2.95;;
42700;SDS011;28316;49.504;8.526;2023-04-25T08:01:58;4.43;;;2.42;;
42700;SDS011;28316;49.504;8.526;2023-04-25T08:04:25;7.82;;;2.47;;
42700;SDS011;28316;49.504;8.526;2023-04-25T08:06:51;7.05;;;2.70;;
42700;SDS011;28316;49.504;8.526;2023-04-25T08:09:18;7.53;;;3.08;;
42700;SDS011;28316;49.504;8.526;2023-04-25T08:11:45;8.13;;;3.42;;
42700;SDS011;28316;49.504;8.526;2023-04-25T08:14:12;6.93;;;2.90;;
42700;SDS011;28316;49.504;8.526;2023-04-25T08:16:38;8.40;;;3.28;;
42700;SDS011;28316;49.504;8.526;2023-04-25T08:19:04;12.68;;;3.33;;
42700;SDS011;28316;49.504;8.526;2023-04-25T08:21:30;7.38;;;3.80;;
42700;SDS011;28316;49.504;8.526;2023-04-25T08:23:57;8.48;;;2.72;;
42700;SDS011;28316;49.504;8.526;2023-04-25T08:26:23;7.90;;;3.03;;
42700;SDS011;28316;49.504;8.526;2023-04-25T08:28:50;13.10;;;2.35;;
42700;SDS011;28316;49.504;8.526;2023-04-25T08:31:16;9.07;;;2.47;;
42700;SDS011;28316;49.504;8.526;2023-04-25T08:33:42;10.80;;;2.45;;
42700;SDS011;28316;49.504;8.526;2023-04-25T08:36:08;5.40;;;2.83;;
42700;SDS011;28316;49.504;8.526;2023-04-25T08:38:34;6.22;;;2.13;;
42700;SDS011;28316;49.504;8.526;2023-04-25T08:41:01;22.17;;;3.45;;
42700;SDS011;28316;49.504;8.526;2023-04-25T08:43:27;3.15;;;1.48;;
42700;SDS011;28316;49.504;8.526;2023-04-25T08:45:59;4.38;;;1.80;;
42700;SDS011;28316;49.504;8.526;2023-04-25T08:48:26;6.05;;;2.35;;
42700;SDS011;28316;49.504;8.526;2023-04-25T08:50:56;8.63;;;1.90;;
42700;SDS011;28316;49.504;8.526;2023-04-25T08:53:26;3.38;;;2.25;;
42700;SDS011;28316;49.504;8.526;2023-04-25T08:55:56;9.32;;;2.05;;
42700;SDS011;28316;49.504;8.526;2023-04-25T08:58:26;5.78;;;2.28;;
42700;SDS011;28316;49.504;8.526;2023-04-25T09:00:53;6.82;;;2.38;;
42700;SDS011;28316;49.504;8.526;2023-04-25T09:03:19;5.88;;;1.77;;
42700;SDS011;28316;49.504;8.526;2023-04-25T09:05:45;2.72;;;1.75;;
42700;SDS011;28316;49.504;8.526;2023-04-25T09:08:11;10.63;;;2.03;;
42700;SDS011;28316;49.504;8.526;2023-04-25T09:10:37;7.90;;;2.10;;
42700;SDS011;28316;49.504;8.526;2023-04-25T09:13:11;6.15;;;2.28;;
42700;SDS011;28316;49.504;8.526;2023-04-25T09:15:51;4.28;;;2.03;;
42700;SDS011;28316;49.504;8.526;2023-04-25T09:18:23;5.80;;;2.05;;
42700;SDS011;28316;49.504;8.526;2023-04-25T09:20:54;5.95;;;2.72;;
42700;SDS011;28316;49.504;8.526;2023-04-25T09:23:22;9.48;;;2.92;;
42700;SDS011;28316;49.504;8.526;2023-04-25T09:25:49;6.13;;;2.45;;
42700;SDS011;28316;49.504;8.526;2023-04-25T09:28:22;5.38;;;1.25;;
42700;SDS011;28316;49.504;8.526;2023-04-25T09:30:53;5.57;;;2.40;;
42700;SDS011;28316;49.504;8.526;2023-04-25T09:33:31;4.55;;;1.85;;
42700;SDS011;28316;49.504;8.526;2023-04-25T09:36:01;4.53;;;1.70;;
42700;SDS011;28316;49.504;8.526;2023-04-25T09:38:29;2.67;;;1.40;;
42700;SDS011;28316;49.504;8.526;2023-04-25T09:41:07;4.35;;;1.95;;
42700;SDS011;28316;49.504;8.526;2023-04-25T09:43:34;6.75;;;1.92;;
42700;SDS011;28316;49.504;8.526;2023-04-25T09:46:01;6.78;;;2.13;;
42700;SDS011;28316;49.504;8.526;2023-04-25T09:48:27;10.68;;;3.22;;
42700;SDS011;28316;49.504;8.526;2023-04-25T09:53:39;3.20;;;1.85;;
42700;SDS011;28316;49.504;8.526;2023-04-25T09:56:08;5.63;;;1.85;;
42700;SDS011;28316;49.504;8.526;2023-04-25T09:58:37;3.85;;;1.92;;
42700;SDS011;28316;49.504;8.526;2023-04-25T10:01:06;9.05;;;2.45;;
42700;SDS011;28316;49.504;8.526;2023-04-25T10:03:36;7.95;;;3.00;;
42700;SDS011;28316;49.504;8.526;2023-04-25T10:06:08;9.65;;;2.10;;
42700;SDS011;28316;49.504;8.526;2023-04-25T10:08:44;6.22;;;2.20;;
42700;SDS011;28316;49.504;8.526;2023-04-25T10:11:11;4.93;;;3.17;;
42700;SDS011;28316;49.504;8.526;2023-04-25T10:13:40;9.88;;;2.78;;
42700;SDS011;28316;49.504;8.526;2023-04-25T10:16:07;3.85;;;1.75;;
42700;SDS011;28316;49.504;8.526;2023-04-25T10:18:34;8.65;;;1.95;;
42700;SDS011;28316;49.504;8.526;2023-04-25T10:21:00;8.68;;;2.22;;
42700;SDS011;28316;49.504;8.526;2023-04-25T10:23:29;6.05;;;2.33;;
42700;SDS011;28316;49.504;8.526;2023-04-25T10:25:56;5.65;;;2.50;;
42700;SDS011;28316;49.504;8.526;2023-04-25T10:28:23;9.95;;;2.20;;
42700;SDS011;28316;49.504;8.526;2023-04-25T10:31:11;6.00;;;1.95;;
42700;SDS011;28316;49.504;8.526;2023-04-25T10:33:36;4.82;;;2.17;;
42700;SDS011;28316;49.504;8.526;2023-04-25T10:39:03;3.90;;;1.90;;
42700;SDS011;28316;49.504;8.526;2023-04-25T10:41:47;4.57;;;2.28;;
42700;SDS011;28316;49.504;8.526;2023-04-25T10:44:18;10.75;;;2.72;;
42700;SDS011;28316;49.504;8.526;2023-04-25T10:46:44;4.22;;;1.90;;
42700;SDS011;28316;49.504;8.526;2023-04-25T10:55:02;3.05;;;1.40;;
42700;SDS011;28316;49.504;8.526;2023-04-25T11:02:51;3.45;;;1.40;;
42700;SDS011;28316;49.504;8.526;2023-04-25T11:05:32;3.58;;;1.40;;
42700;SDS011;28316;49.504;8.526;2023-04-25T11:08:00;3.65;;;1.45;;
42700;SDS011;28316;49.504;8.526;2023-04-25T11:10:28;1.85;;;1.20;;
42700;SDS011;28316;49.504;8.526;2023-04-25T11:12:59;2.33;;;0.88;;
42700;SDS011;28316;49.504;8.526;2023-04-25T11:15:25;6.60;;;2.22;;
42700;SDS011;28316;49.504;8.526;2023-04-25T11:17:52;1.80;;;1.08;;
42700;SDS011;28316;49.504;8.526;2023-04-25T11:20:19;3.45;;;1.42;;
42700;SDS011;28316;49.504;8.526;2023-04-25T11:22:45;1.98;;;1.13;;
42700;SDS011;28316;49.504;8.526;2023-04-25T11:25:12;2.03;;;1.08;;
42700;SDS011;28316;49.504;8.526;2023-04-25T11:27:54;2.45;;;1.20;;
42700;SDS011;28316;49.504;8.526;2023-04-25T11:30:23;4.03;;;1.77;;
42700;SDS011;28316;49.504;8.526;2023-04-25T11:32:50;3.72;;;1.20;;
42700;SDS011;28316;49.504;8.526;2023-04-25T11:35:18;2.53;;;1.15;;
42700;SDS011;28316;49.504;8.526;2023-04-25T11:37:47;1.95;;;1.10;;
42700;SDS011;28316;49.504;8.526;2023-04-25T11:40:15;5.45;;;1.42;;
42700;SDS011;28316;49.504;8.526;2023-04-25T11:42:44;4.63;;;1.20;;
42700;SDS011;28316;49.504;8.526;2023-04-25T11:45:11;4.05;;;1.40;;
42700;SDS011;28316;49.504;8.526;2023-04-25T11:47:38;5.68;;;1.83;;
42700;SDS011;28316;49.504;8.526;2023-04-25T11:50:05;4.05;;;1.67;;
42700;SDS011;28316;49.504;8.526;2023-04-25T11:55:08;5.65;;;1.50;;
42700;SDS011;28316;49.504;8.526;2023-04-25T11:57:38;2.33;;;1.30;;
42700;SDS011;28316;49.504;8.526;2023-04-25T12:00:09;4.35;;;1.38;;
42700;SDS011;28316;49.504;8.526;2023-04-25T12:02:42;3.00;;;1.35;;
42700;SDS011;28316;49.504;8.526;2023-04-25T12:05:10;5.30;;;1.35;;
42700;SDS011;28316;49.504;8.526;2023-04-25T12:07:37;2.17;;;1.25;;
42700;SDS011;28316;49.504;8.526;2023-04-25T12:10:07;4.78;;;1.75;;
42700;SDS011;28316;49.504;8.526;2023-04-25T12:12:41;3.33;;;1.38;;
42700;SDS011;28316;49.504;8.526;2023-04-25T12:17:47;3.85;;;1.55;;
42700;SDS011;28316;49.504;8.526;2023-04-25T12:22:46;2.63;;;1.60;;
42700;SDS011;28316;49.504;8.526;2023-04-25T12:25:33;3.83;;;1.27;;
42700;SDS011;28316;49.504;8.526;2023-04-25T12:33:22;2.95;;;1.70;;
42700;SDS011;28316;49.504;8.526;2023-04-25T12:35:59;3.58;;;1.98;;
42700;SDS011;28316;49.504;8.526;2023-04-25T12:38:35;7.00;;;2.05;;
42700;SDS011;28316;49.504;8.526;2023-04-25T12:41:06;1.67;;;1.13;;
42700;SDS011;28316;49.504;8.526;2023-04-25T12:43:33;3.53;;;1.42;;
42700;SDS011;28316;49.504;8.526;2023-04-25T12:45:59;8.30;;;2.15;;
42700;SDS011;28316;49.504;8.526;2023-04-25T12:48:25;2.58;;;1.42;;
42700;SDS011;28316;49.504;8.526;2023-04-25T12:50:51;4.43;;;1.90;;
42700;SDS011;28316;49.504;8.526;2023-04-25T12:53:21;10.02;;;4.85;;
42700;SDS011;28316;49.504;8.526;2023-04-25T12:55:49;6.28;;;2.40;;
42700;SDS011;28316;49.504;8.526;2023-04-25T12:58:17;4.38;;;2.08;;
42700;SDS011;28316;49.504;8.526;2023-04-25T13:00:44;3.17;;;1.40;;
42700;SDS011;28316;49.504;8.526;2023-04-25T13:03:10;6.30;;;1.90;;
42700;SDS011;28316;49.504;8.526;2023-04-25T13:05:37;3.63;;;2.00;;
42700;SDS011;28316;49.504;8.526;2023-04-25T13:08:04;2.80;;;1.45;;
42700;SDS011;28316;49.504;8.526;2023-04-25T13:10:30;3.50;;;1.80;;
42700;SDS011;28316;49.504;8.526;2023-04-25T13:12:56;3.25;;;1.92;;
42700;SDS011;28316;49.504;8.526;2023-04-25T13:15:22;7.07;;;2.65;;
42700;SDS011;28316;49.504;8.526;2023-04-25T13:17:48;4.05;;;1.60;;
42700;SDS011;28316;49.504;8.526;2023-04-25T13:20:14;5.25;;;1.58;;
42700;SDS011;28316;49.504;8.526;2023-04-25T13:22:40;7.93;;;1.95;;
42700;SDS011;28316;49.504;8.526;2023-04-25T13:25:07;6.47;;;1.95;;
42700;SDS011;28316;49.504;8.526;2023-04-25T13:27:34;3.15;;;1.92;;
42700;SDS011;28316;49.504;8.526;2023-04-25T13:30:03;11.88;;;2.38;;
42700;SDS011;28316;49.504;8.526;2023-04-25T13:32:32;3.60;;;1.60;;
42700;SDS011;28316;49.504;8.526;2023-04-25T13:35:01;4.22;;;1.73;;
42700;SDS011;28316;49.504;8.526;2023-04-25T13:37:29;4.10;;;1.80;;
42700;SDS011;28316;49.504;8.526;2023-04-25T13:39:58;5.80;;;1.90;;
42700;SDS011;28316;49.504;8.526;2023-04-25T13:42:25;8.20;;;2.53;;
42700;SDS011;28316;49.504;8.526;2023-04-25T13:44:51;4.57;;;2.20;;
42700;SDS011;28316;49.504;8.526;2023-04-25T13:47:17;5.78;;;2.28;;
42700;SDS011;28316;49.504;8.526;2023-04-25T13:49:42;4.43;;;2.22;;
42700;SDS011;28316;49.504;8.526;2023-04-25T13:52:08;4.32;;;1.75;;
42700;SDS011;28316;49.504;8.526;2023-04-25T13:54:34;4.63;;;2.25;;
42700;SDS011;28316;49.504;8.526;2023-04-25T13:57:00;3.53;;;1.85;;
42700;SDS011;28316;49.504;8.526;2023-04-25T13:59:26;4.57;;;1.98;;
42700;SDS011;28316;49.504;8.526;2023-04-25T14:01:52;7.90;;;2.42;;
42700;SDS011;28316;49.504;8.526;2023-04-25T14:04:18;7.50;;;2.08;;
42700;SDS011;28316;49.504;8.526;2023-04-25T14:06:44;2.90;;;1.65;;
42700;SDS011;28316;49.504;8.526;2023-04-25T14:09:10;3.58;;;1.63;;
42700;SDS011;28316;49.504;8.526;2023-04-25T14:11:37;7.70;;;1.90;;
42700;SDS011;28316;49.504;8.526;2023-04-25T14:14:03;2.22;;;1.27;;
42700;SDS011;28316;49.504;8.526;2023-04-25T14:16:29;5.45;;;1.65;;
42700;SDS011;28316;49.504;8.526;2023-04-25T14:18:57;3.45;;;1.60;;
42700;SDS011;28316;49.504;8.526;2023-04-25T14:21:23;6.60;;;1.92;;
42700;SDS011;28316;49.504;8.526;2023-04-25T14:23:50;2.10;;;1.23;;
42700;SDS011;28316;49.504;8.526;2023-04-25T14:26:15;3.30;;;1.20;;
42700;SDS011;28316;49.504;8.526;2023-04-25T14:28:41;4.00;;;1.67;;
42700;SDS011;28316;49.504;8.526;2023-04-25T14:31:07;6.40;;;1.55;;
42700;SDS011;28316;49.504;8.526;2023-04-25T14:33:33;2.85;;;1.63;;
42700;SDS011;28316;49.504;8.526;2023-04-25T14:35:59;5.25;;;1.73;;
42700;SDS011;28316;49.504;8.526;2023-04-25T14:38:25;4.53;;;1.50;;
42700;SDS011;28316;49.504;8.526;2023-04-25T14:40:51;3.53;;;1.73;;
42700;SDS011;28316;49.504;8.526;2023-04-25T14:43:18;4.22;;;1.65;;
42700;SDS011;28316;49.504;8.526;2023-04-25T14:45:44;2.85;;;1.60;;
42700;SDS011;28316;49.504;8.526;2023-04-25T14:48:10;7.38;;;1.70;;
42700;SDS011;28316;49.504;8.526;2023-04-25T14:50:36;3.85;;;1.95;;
42700;SDS011;28316;49.504;8.526;2023-04-25T14:53:02;6.50;;;1.58;;
42700;SDS011;28316;49.504;8.526;2023-04-25T14:55:28;6.55;;;1.92;;
42700;SDS011;28316;49.504;8.526;2023-04-25T14:57:54;2.15;;;1.33;;
42700;SDS011;28316;49.504;8.526;2023-04-25T15:00:20;2.38;;;1.33;;
42700;SDS011;28316;49.504;8.526;2023-04-25T15:02:47;2.55;;;1.20;;
42700;SDS011;28316;49.504;8.526;2023-04-25T15:05:14;3.15;;;1.65;;
42700;SDS011;28316;49.504;8.526;2023-04-25T15:07:43;3.35;;;1.50;;
42700;SDS011;28316;49.504;8.526;2023-04-25T15:10:09;3.63;;;1.30;;
42700;SDS011;28316;49.504;8.526;2023-04-25T15:12:40;2.47;;;1.20;;
42700;SDS011;28316;49.504;8.526;2023-04-25T15:15:10;3.30;;;1.70;;
42700;SDS011;28316;49.504;8.526;2023-04-25T15:17:37;1.95;;;1.13;;